sensor_id;sensor_type;location;lat;lon;timestamp;P1;durP1;ratioP1;P2;durP2;ratioP2
77078;SDS011;66004;55.096;38.760;2024-03-02T00:00:10;44.28;;;19.23;;
77078;SDS011;66004;55.096;38.760;2024-03-02T00:02:42;46.90;;;20.40;;
77078;SDS011;66004;55.096;38.760;2024-03-02T00:05:19;53.40;;;20.92;;
77078;SDS011;66004;55.096;38.760;2024-03-02T00:07:53;45.83;;;19.05;;
77078;SDS011;66004;55.096;38.760;2024-03-02T00:10:21;47.55;;;16.73;;
77078;SDS011;66004;55.096;38.760;2024-03-02T00:12:54;42.58;;;17.48;;
77078;SDS011;66004;55.096;38.760;2024-03-02T00:18:11;48.80;;;18.42;;
77078;SDS011;66004;55.096;38.760;2024-03-02T00:20:38;43.25;;;16.52;;
77078;SDS011;66004;55.096;38.760;2024-03-02T00:23:05;53.70;;;18.73;;
77078;SDS011;66004;55.096;38.760;2024-03-02T00:25:39;45.65;;;16.70;;
77078;SDS011;66004;55.096;38.760;2024-03-02T00:28:31;57.80;;;17.08;;
77078;SDS011;66004;55.096;38.760;2024-03-02T00:31:02;38.15;;;15.73;;
77078;SDS011;66004;55.096;38.760;2024-03-02T00:33:36;45.35;;;15.23;;
77078;SDS011;66004;55.096;38.760;2024-03-02T00:36:05;44.75;;;15.50;;
77078;SDS011;66004;55.096;38.760;2024-03-02T00:38:32;41.30;;;15.45;;
77078;SDS011;66004;55.096;38.760;2024-03-02T00:40:59;47.80;;;14.73;;
77078;SDS011;66004;55.096;38.760;2024-03-02T00:46:06;47.72;;;17.70;;
77078;SDS011;66004;55.096;38.760;2024-03-02T00:48:32;41.90;;;15.95;;
77078;SDS011;66004;55.096;38.760;2024-03-02T00:51:00;45.22;;;16.52;;
77078;SDS011;66004;55.096;38.760;2024-03-02T00:53:28;38.30;;;15.18;;
77078;SDS011;66004;55.096;38.760;2024-03-02T00:55:55;44.45;;;16.35;;
77078;SDS011;66004;55.096;38.760;2024-03-02T00:58:21;51.53;;;16.45;;
77078;SDS011;66004;55.096;38.760;2024-03-02T01:00:46;36.70;;;15.57;;
77078;SDS011;66004;55.096;38.760;2024-03-02T01:03:12;45.08;;;17.38;;
77078;SDS011;66004;55.096;38.760;2024-03-02T01:05:41;41.63;;;17.25;;
77078;SDS011;66004;55.096;38.760;2024-03-02T01:08:07;33.10;;;14.02;;
77078;SDS011;66004;55.096;38.760;2024-03-02T01:10:33;31.73;;;14.10;;
77078;SDS011;66004;55.096;38.760;2024-03-02T01:12:59;38.97;;;14.55;;
77078;SDS011;66004;55.096;38.760;2024-03-02T01:15:25;41.17;;;14.93;;
77078;SDS011;66004;55.096;38.760;2024-03-02T01:17:50;36.20;;;13.45;;
77078;SDS011;66004;55.096;38.760;2024-03-02T01:20:16;36.72;;;14.95;;
77078;SDS011;66004;55.096;38.760;2024-03-02T01:22:42;36.13;;;13.43;;
77078;SDS011;66004;55.096;38.760;2024-03-02T01:25:08;36.08;;;14.20;;
77078;SDS011;66004;55.096;38.760;2024-03-02T01:27:34;34.95;;;14.88;;
77078;SDS011;66004;55.096;38.760;2024-03-02T01:29:59;46.95;;;14.48;;
77078;SDS011;66004;55.096;38.760;2024-03-02T01:32:25;26.92;;;13.43;;
77078;SDS011;66004;55.096;38.760;2024-03-02T01:34:50;37.40;;;13.35;;
77078;SDS011;66004;55.096;38.760;2024-03-02T01:37:16;41.50;;;15.20;;
77078;SDS011;66004;55.096;38.760;2024-03-02T01:39:41;38.53;;;16.15;;
77078;SDS011;66004;55.096;38.760;2024-03-02T01:42:07;33.88;;;13.15;;
77078;SDS011;66004;55.096;38.760;2024-03-02T01:44:32;35.78;;;13.77;;
77078;SDS011;66004;55.096;38.760;2024-03-02T01:46:58;43.97;;;16.10;;
77078;SDS011;66004;55.096;38.760;2024-03-02T01:49:24;32.70;;;14.02;;
77078;SDS011;66004;55.096;38.760;2024-03-02T01:51:49;45.15;;;16.75;;
77078;SDS011;66004;55.096;38.760;2024-03-02T01:54:15;47.17;;;15.38;;
77078;SDS011;66004;55.096;38.760;2024-03-02T01:56:40;36.53;;;15.73;;
77078;SDS011;66004;55.096;38.760;2024-03-02T01:59:06;33.70;;;14.48;;
77078;SDS011;66004;55.096;38.760;2024-03-02T02:01:32;40.85;;;15.43;;
77078;SDS011;66004;55.096;38.760;2024-03-02T02:03:57;32.90;;;12.75;;
77078;SDS011;66004;55.096;38.760;2024-03-02T02:06:23;41.67;;;13.85;;
77078;SDS011;66004;55.096;38.760;2024-03-02T02:08:49;34.72;;;14.68;;
77078;SDS011;66004;55.096;38.760;2024-03-02T02:11:17;36.45;;;14.82;;
77078;SDS011;66004;55.096;38.760;2024-03-02T02:13:43;41.25;;;18.05;;
77078;SDS011;66004;55.096;38.760;2024-03-02T02:16:09;38.90;;;14.88;;
77078;SDS011;66004;55.096;38.760;2024-03-02T02:18:35;31.50;;;13.52;;
77078;SDS011;66004;55.096;38.760;2024-03-02T02:21:03;45.00;;;17.83;;
77078;SDS011;66004;55.096;38.760;2024-03-02T02:23:29;44.45;;;16.45;;
77078;SDS011;66004;55.096;38.760;2024-03-02T02:25:55;37.28;;;13.35;;
77078;SDS011;66004;55.096;38.760;2024-03-02T02:28:20;33.92;;;13.30;;
77078;SDS011;66004;55.096;38.760;2024-03-02T02:30:46;38.03;;;13.38;;
77078;SDS011;66004;55.096;38.760;2024-03-02T02:33:12;35.83;;;14.32;;
77078;SDS011;66004;55.096;38.760;2024-03-02T02:35:37;39.53;;;14.98;;
77078;SDS011;66004;55.096;38.760;2024-03-02T02:38:03;53.03;;;17.40;;
77078;SDS011;66004;55.096;38.760;2024-03-02T02:40:29;41.33;;;14.93;;
77078;SDS011;66004;55.096;38.760;2024-03-02T02:42:56;38.83;;;14.90;;
77078;SDS011;66004;55.096;38.760;2024-03-02T02:45:22;39.72;;;14.90;;
77078;SDS011;66004;55.096;38.760;2024-03-02T02:47:47;40.88;;;15.45;;
77078;SDS011;66004;55.096;38.760;2024-03-02T02:50:13;37.38;;;14.82;;
77078;SDS011;66004;55.096;38.760;2024-03-02T02:52:39;33.13;;;13.32;;
77078;SDS011;66004;55.096;38.760;2024-03-02T02:55:07;41.95;;;15.18;;
77078;SDS011;66004;55.096;38.760;2024-03-02T02:57:34;39.08;;;15.23;;
77078;SDS011;66004;55.096;38.760;2024-03-02T03:00:05;40.40;;;15.85;;
77078;SDS011;66004;55.096;38.760;2024-03-02T03:02:36;43.28;;;16.63;;
77078;SDS011;66004;55.096;38.760;2024-03-02T03:05:02;48.50;;;17.55;;
77078;SDS011;66004;55.096;38.760;2024-03-02T03:07:29;49.05;;;18.33;;
77078;SDS011;66004;55.096;38.760;2024-03-02T03:09:54;42.30;;;15.45;;
77078;SDS011;66004;55.096;38.760;2024-03-02T03:12:19;35.75;;;15.23;;
77078;SDS011;66004;55.096;38.760;2024-03-02T03:14:45;49.38;;;18.48;;
77078;SDS011;66004;55.096;38.760;2024-03-02T03:17:11;47.78;;;19.02;;
77078;SDS011;66004;55.096;38.760;2024-03-02T03:19:37;57.00;;;21.13;;
77078;SDS011;66004;55.096;38.760;2024-03-02T03:22:03;54.30;;;22.63;;
77078;SDS011;66004;55.096;38.760;2024-03-02T03:24:29;51.30;;;20.40;;
77078;SDS011;66004;55.096;38.760;2024-03-02T03:26:55;36.75;;;15.85;;
77078;SDS011;66004;55.096;38.760;2024-03-02T03:29:20;41.47;;;16.80;;
77078;SDS011;66004;55.096;38.760;2024-03-02T03:31:46;46.35;;;16.63;;
77078;SDS011;66004;55.096;38.760;2024-03-02T03:34:11;32.17;;;14.05;;
77078;SDS011;66004;55.096;38.760;2024-03-02T03:36:41;37.15;;;14.70;;
77078;SDS011;66004;55.096;38.760;2024-03-02T03:39:06;34.33;;;14.25;;
77078;SDS011;66004;55.096;38.760;2024-03-02T03:41:32;35.97;;;13.68;;
77078;SDS011;66004;55.096;38.760;2024-03-02T03:43:57;34.58;;;13.07;;
77078;SDS011;66004;55.096;38.760;2024-03-02T03:46:23;39.13;;;14.88;;
77078;SDS011;66004;55.096;38.760;2024-03-02T03:48:49;34.85;;;14.38;;
77078;SDS011;66004;55.096;38.760;2024-03-02T03:51:14;42.63;;;14.63;;
77078;SDS011;66004;55.096;38.760;2024-03-02T03:53:40;39.63;;;14.68;;
77078;SDS011;66004;55.096;38.760;2024-03-02T03:56:05;36.05;;;13.57;;
77078;SDS011;66004;55.096;38.760;2024-03-02T03:58:31;38.60;;;14.98;;
77078;SDS011;66004;55.096;38.760;2024-03-02T04:00:57;41.88;;;15.25;;
77078;SDS011;66004;55.096;38.760;2024-03-02T04:03:22;39.22;;;15.00;;
77078;SDS011;66004;55.096;38.760;2024-03-02T04:05:48;55.25;;;17.50;;
77078;SDS011;66004;55.096;38.760;2024-03-02T04:08:13;77.82;;;25.05;;
77078;SDS011;66004;55.096;38.760;2024-03-02T04:10:39;89.47;;;26.65;;
77078;SDS011;66004;55.096;38.760;2024-03-02T04:13:05;70.97;;;23.00;;
77078;SDS011;66004;55.096;38.760;2024-03-02T04:15:31;62.88;;;21.33;;
77078;SDS011;66004;55.096;38.760;2024-03-02T04:17:56;71.10;;;24.13;;
77078;SDS011;66004;55.096;38.760;2024-03-02T04:20:22;62.42;;;20.30;;
77078;SDS011;66004;55.096;38.760;2024-03-02T04:22:47;43.08;;;15.25;;
77078;SDS011;66004;55.096;38.760;2024-03-02T04:25:13;58.13;;;20.63;;
77078;SDS011;66004;55.096;38.760;2024-03-02T04:27:38;52.28;;;18.50;;
77078;SDS011;66004;55.096;38.760;2024-03-02T04:30:04;56.60;;;21.15;;
77078;SDS011;66004;55.096;38.760;2024-03-02T04:34:56;50.22;;;17.33;;
77078;SDS011;66004;55.096;38.760;2024-03-02T04:37:22;50.60;;;17.95;;
77078;SDS011;66004;55.096;38.760;2024-03-02T04:39:47;38.65;;;13.82;;
77078;SDS011;66004;55.096;38.760;2024-03-02T04:42:13;29.35;;;13.18;;
77078;SDS011;66004;55.096;38.760;2024-03-02T04:44:39;51.97;;;17.08;;
77078;SDS011;66004;55.096;38.760;2024-03-02T04:47:04;46.97;;;14.85;;
77078;SDS011;66004;55.096;38.760;2024-03-02T04:49:30;37.60;;;15.18;;
77078;SDS011;66004;55.096;38.760;2024-03-02T04:51:56;44.90;;;15.65;;
77078;SDS011;66004;55.096;38.760;2024-03-02T04:54:24;33.90;;;14.32;;
77078;SDS011;66004;55.096;38.760;2024-03-02T04:56:50;38.03;;;17.27;;
77078;SDS011;66004;55.096;38.760;2024-03-02T04:59:19;37.85;;;16.23;;
77078;SDS011;66004;55.096;38.760;2024-03-02T05:01:45;32.85;;;12.68;;
77078;SDS011;66004;55.096;38.760;2024-03-02T05:04:11;34.83;;;12.77;;
77078;SDS011;66004;55.096;38.760;2024-03-02T05:06:37;32.25;;;13.77;;
77078;SDS011;66004;55.096;38.760;2024-03-02T05:09:06;19.85;;;8.00;;
77078;SDS011;66004;55.096;38.760;2024-03-02T05:11:32;31.95;;;12.73;;
77078;SDS011;66004;55.096;38.760;2024-03-02T05:14:06;30.00;;;13.05;;
77078;SDS011;66004;55.096;38.760;2024-03-02T05:16:33;29.88;;;11.75;;
77078;SDS011;66004;55.096;38.760;2024-03-02T05:18:59;30.08;;;11.23;;
77078;SDS011;66004;55.096;38.760;2024-03-02T05:21:25;32.35;;;13.02;;
77078;SDS011;66004;55.096;38.760;2024-03-02T05:23:50;37.97;;;14.02;;
77078;SDS011;66004;55.096;38.760;2024-03-02T05:26:16;48.70;;;16.63;;
77078;SDS011;66004;55.096;38.760;2024-03-02T05:28:42;38.53;;;14.75;;
77078;SDS011;66004;55.096;38.760;2024-03-02T05:31:10;44.08;;;18.08;;
77078;SDS011;66004;55.096;38.760;2024-03-02T05:33:39;46.97;;;18.13;;
77078;SDS011;66004;55.096;38.760;2024-03-02T05:36:05;37.33;;;14.73;;
77078;SDS011;66004;55.096;38.760;2024-03-02T05:38:31;44.60;;;17.88;;
77078;SDS011;66004;55.096;38.760;2024-03-02T05:40:57;42.63;;;16.88;;
77078;SDS011;66004;55.096;38.760;2024-03-02T05:43:22;44.53;;;16.83;;
77078;SDS011;66004;55.096;38.760;2024-03-02T05:45:48;40.65;;;14.93;;
77078;SDS011;66004;55.096;38.760;2024-03-02T05:48:14;40.70;;;16.63;;
77078;SDS011;66004;55.096;38.760;2024-03-02T05:50:40;38.75;;;15.15;;
77078;SDS011;66004;55.096;38.760;2024-03-02T05:53:05;27.55;;;12.68;;
77078;SDS011;66004;55.096;38.760;2024-03-02T05:55:31;35.35;;;15.23;;
77078;SDS011;66004;55.096;38.760;2024-03-02T05:57:56;35.65;;;14.43;;
77078;SDS011;66004;55.096;38.760;2024-03-02T06:00:22;35.95;;;14.27;;
77078;SDS011;66004;55.096;38.760;2024-03-02T06:02:47;30.85;;;11.05;;
77078;SDS011;66004;55.096;38.760;2024-03-02T06:43:10;39.83;;;14.85;;
77078;SDS011;66004;55.096;38.760;2024-03-02T06:45:36;44.58;;;15.43;;
77078;SDS011;66004;55.096;38.760;2024-03-02T06:48:01;41.78;;;16.33;;
77078;SDS011;66004;55.096;38.760;2024-03-02T06:50:27;38.80;;;15.95;;
77078;SDS011;66004;55.096;38.760;2024-03-02T06:52:53;44.42;;;17.58;;
77078;SDS011;66004;55.096;38.760;2024-03-02T06:55:21;46.30;;;16.98;;
77078;SDS011;66004;55.096;38.760;2024-03-02T06:57:46;44.75;;;18.88;;
77078;SDS011;66004;55.096;38.760;2024-03-02T07:00:12;54.42;;;19.13;;
77078;SDS011;66004;55.096;38.760;2024-03-02T07:02:39;49.72;;;16.98;;
77078;SDS011;66004;55.096;38.760;2024-03-02T07:05:06;53.10;;;17.63;;
77078;SDS011;66004;55.096;38.760;2024-03-02T07:07:33;53.42;;;19.55;;
77078;SDS011;66004;55.096;38.760;2024-03-02T07:10:00;43.50;;;16.50;;
77078;SDS011;66004;55.096;38.760;2024-03-02T07:12:26;46.25;;;17.50;;
77078;SDS011;66004;55.096;38.760;2024-03-02T07:14:51;44.72;;;15.55;;
77078;SDS011;66004;55.096;38.760;2024-03-02T07:17:20;46.75;;;18.60;;
77078;SDS011;66004;55.096;38.760;2024-03-02T07:19:46;44.53;;;15.93;;
77078;SDS011;66004;55.096;38.760;2024-03-02T07:22:11;46.17;;;18.33;;
77078;SDS011;66004;55.096;38.760;2024-03-02T07:24:43;44.25;;;17.75;;
77078;SDS011;66004;55.096;38.760;2024-03-02T07:27:11;44.22;;;19.35;;
77078;SDS011;66004;55.096;38.760;2024-03-02T07:32:03;30.50;;;12.02;;
77078;SDS011;66004;55.096;38.760;2024-03-02T07:34:29;45.30;;;13.80;;
77078;SDS011;66004;55.096;38.760;2024-03-02T07:36:55;43.80;;;16.42;;
77078;SDS011;66004;55.096;38.760;2024-03-02T07:39:20;41.33;;;18.02;;
77078;SDS011;66004;55.096;38.760;2024-03-02T07:41:49;41.90;;;15.85;;
77078;SDS011;66004;55.096;38.760;2024-03-02T07:44:14;42.28;;;15.43;;
77078;SDS011;66004;55.096;38.760;2024-03-02T07:46:43;35.72;;;15.40;;
77078;SDS011;66004;55.096;38.760;2024-03-02T07:49:09;34.95;;;12.70;;
77078;SDS011;66004;55.096;38.760;2024-03-02T07:51:38;49.40;;;17.98;;
77078;SDS011;66004;55.096;38.760;2024-03-02T07:54:04;46.30;;;17.27;;
77078;SDS011;66004;55.096;38.760;2024-03-02T07:56:29;40.53;;;15.82;;
77078;SDS011;66004;55.096;38.760;2024-03-02T07:58:55;49.05;;;18.20;;
77078;SDS011;66004;55.096;38.760;2024-03-02T08:01:22;49.75;;;18.27;;
77078;SDS011;66004;55.096;38.760;2024-03-02T08:03:48;29.13;;;11.73;;
77078;SDS011;66004;55.096;38.760;2024-03-02T08:06:15;41.88;;;15.40;;
77078;SDS011;66004;55.096;38.760;2024-03-02T08:08:46;37.67;;;15.23;;
77078;SDS011;66004;55.096;38.760;2024-03-02T08:11:12;36.60;;;15.82;;
77078;SDS011;66004;55.096;38.760;2024-03-02T08:13:37;43.88;;;17.73;;
77078;SDS011;66004;55.096;38.760;2024-03-02T08:16:03;45.80;;;16.60;;
77078;SDS011;66004;55.096;38.760;2024-03-02T08:18:32;43.35;;;17.55;;
77078;SDS011;66004;55.096;38.760;2024-03-02T08:20:57;48.58;;;19.20;;
77078;SDS011;66004;55.096;38.760;2024-03-02T08:23:23;46.60;;;18.80;;
77078;SDS011;66004;55.096;38.760;2024-03-02T08:25:49;42.25;;;16.27;;
77078;SDS011;66004;55.096;38.760;2024-03-02T08:28:14;41.25;;;16.17;;
77078;SDS011;66004;55.096;38.760;2024-03-02T08:30:40;41.95;;;17.75;;
77078;SDS011;66004;55.096;38.760;2024-03-02T08:33:09;42.90;;;17.58;;
77078;SDS011;66004;55.096;38.760;2024-03-02T08:35:34;41.13;;;16.95;;
77078;SDS011;66004;55.096;38.760;2024-03-02T08:38:03;41.35;;;17.13;;
77078;SDS011;66004;55.096;38.760;2024-03-02T08:40:29;46.13;;;17.00;;
77078;SDS011;66004;55.096;38.760;2024-03-02T08:42:55;49.28;;;18.45;;
77078;SDS011;66004;55.096;38.760;2024-03-02T08:45:20;40.13;;;14.77;;
77078;SDS011;66004;55.096;38.760;2024-03-02T08:47:46;39.88;;;16.95;;
77078;SDS011;66004;55.096;38.760;2024-03-02T08:50:13;36.25;;;14.93;;
77078;SDS011;66004;55.096;38.760;2024-03-02T08:52:39;37.88;;;15.25;;
77078;SDS011;66004;55.096;38.760;2024-03-02T08:55:05;37.92;;;15.23;;
77078;SDS011;66004;55.096;38.760;2024-03-02T08:57:32;44.05;;;16.98;;
77078;SDS011;66004;55.096;38.760;2024-03-02T09:02:24;36.22;;;14.80;;
77078;SDS011;66004;55.096;38.760;2024-03-02T09:04:50;34.67;;;16.05;;
77078;SDS011;66004;55.096;38.760;2024-03-02T09:07:15;41.88;;;16.55;;
77078;SDS011;66004;55.096;38.760;2024-03-02T09:09:41;35.92;;;16.50;;
77078;SDS011;66004;55.096;38.760;2024-03-02T09:12:06;46.53;;;18.63;;
77078;SDS011;66004;55.096;38.760;2024-03-02T09:14:32;45.13;;;17.77;;
77078;SDS011;66004;55.096;38.760;2024-03-02T09:17:00;43.78;;;16.67;;
77078;SDS011;66004;55.096;38.760;2024-03-02T09:19:25;34.53;;;15.07;;
77078;SDS011;66004;55.096;38.760;2024-03-02T09:21:51;42.78;;;18.55;;
77078;SDS011;66004;55.096;38.760;2024-03-02T09:24:16;41.17;;;18.08;;
77078;SDS011;66004;55.096;38.760;2024-03-02T09:26:42;38.75;;;15.85;;
77078;SDS011;66004;55.096;38.760;2024-03-02T09:29:07;41.75;;;17.52;;
77078;SDS011;66004;55.096;38.760;2024-03-02T09:31:38;37.97;;;15.88;;
77078;SDS011;66004;55.096;38.760;2024-03-02T09:34:07;36.97;;;14.82;;
77078;SDS011;66004;55.096;38.760;2024-03-02T09:36:33;37.47;;;16.38;;
77078;SDS011;66004;55.096;38.760;2024-03-02T09:38:59;38.80;;;15.93;;
77078;SDS011;66004;55.096;38.760;2024-03-02T09:41:24;36.78;;;17.23;;
77078;SDS011;66004;55.096;38.760;2024-03-02T09:43:50;38.80;;;16.83;;
77078;SDS011;66004;55.096;38.760;2024-03-02T09:46:16;43.30;;;18.02;;
77078;SDS011;66004;55.096;38.760;2024-03-02T09:48:45;42.67;;;18.20;;
77078;SDS011;66004;55.096;38.760;2024-03-02T09:51:11;38.40;;;18.08;;
77078;SDS011;66004;55.096;38.760;2024-03-02T09:53:37;43.85;;;18.20;;
77078;SDS011;66004;55.096;38.760;2024-03-02T09:56:03;38.72;;;15.90;;
77078;SDS011;66004;55.096;38.760;2024-03-02T09:58:30;44.08;;;17.55;;
77078;SDS011;66004;55.096;38.760;2024-03-02T10:00:58;43.42;;;16.92;;
77078;SDS011;66004;55.096;38.760;2024-03-02T10:03:26;47.55;;;18.33;;
77078;SDS011;66004;55.096;38.760;2024-03-02T10:06:15;42.13;;;18.15;;
77078;SDS011;66004;55.096;38.760;2024-03-02T10:08:43;44.55;;;19.05;;
77078;SDS011;66004;55.096;38.760;2024-03-02T10:11:09;43.05;;;18.33;;
77078;SDS011;66004;55.096;38.760;2024-03-02T10:13:35;47.70;;;19.67;;
77078;SDS011;66004;55.096;38.760;2024-03-02T10:16:11;44.20;;;18.75;;
77078;SDS011;66004;55.096;38.760;2024-03-02T10:18:37;46.08;;;19.65;;
77078;SDS011;66004;55.096;38.760;2024-03-02T10:21:12;42.53;;;19.40;;
77078;SDS011;66004;55.096;38.760;2024-03-02T10:23:39;41.22;;;17.13;;
77078;SDS011;66004;55.096;38.760;2024-03-02T10:26:16;47.35;;;18.55;;
77078;SDS011;66004;55.096;38.760;2024-03-02T10:28:46;45.13;;;19.08;;
77078;SDS011;66004;55.096;38.760;2024-03-02T10:31:24;44.17;;;18.63;;
77078;SDS011;66004;55.096;38.760;2024-03-02T10:33:54;45.97;;;18.48;;
77078;SDS011;66004;55.096;38.760;2024-03-02T10:36:20;39.10;;;18.27;;
77078;SDS011;66004;55.096;38.760;2024-03-02T10:38:46;45.85;;;20.73;;
77078;SDS011;66004;55.096;38.760;2024-03-02T10:41:17;35.95;;;15.30;;
77078;SDS011;66004;55.096;38.760;2024-03-02T10:43:46;34.28;;;16.90;;
77078;SDS011;66004;55.096;38.760;2024-03-02T10:46:15;36.13;;;16.80;;
77078;SDS011;66004;55.096;38.760;2024-03-02T10:48:44;34.83;;;16.35;;
77078;SDS011;66004;55.096;38.760;2024-03-02T10:51:11;36.38;;;15.77;;
77078;SDS011;66004;55.096;38.760;2024-03-02T10:53:37;38.30;;;17.90;;
77078;SDS011;66004;55.096;38.760;2024-03-02T10:56:03;38.60;;;17.42;;
77078;SDS011;66004;55.096;38.760;2024-03-02T10:58:32;36.15;;;17.65;;
77078;SDS011;66004;55.096;38.760;2024-03-02T11:01:04;37.67;;;17.08;;
77078;SDS011;66004;55.096;38.760;2024-03-02T11:03:33;43.70;;;19.45;;
77078;SDS011;66004;55.096;38.760;2024-03-02T11:06:03;43.38;;;18.35;;
77078;SDS011;66004;55.096;38.760;2024-03-02T11:08:32;38.88;;;17.85;;
77078;SDS011;66004;55.096;38.760;2024-03-02T11:11:02;42.58;;;19.58;;
77078;SDS011;66004;55.096;38.760;2024-03-02T11:13:33;44.55;;;18.75;;
77078;SDS011;66004;55.096;38.760;2024-03-02T11:15:59;43.75;;;19.45;;
77078;SDS011;66004;55.096;38.760;2024-03-02T11:18:31;41.47;;;17.65;;
77078;SDS011;66004;55.096;38.760;2024-03-02T11:20:58;45.17;;;17.98;;
77078;SDS011;66004;55.096;38.760;2024-03-02T11:23:33;45.47;;;17.33;;
77078;SDS011;66004;55.096;38.760;2024-03-02T11:26:20;44.00;;;19.33;;
77078;SDS011;66004;55.096;38.760;2024-03-02T11:28:47;31.83;;;16.40;;
77078;SDS011;66004;55.096;38.760;2024-03-02T11:31:13;30.58;;;16.05;;
77078;SDS011;66004;55.096;38.760;2024-03-02T11:33:38;36.63;;;16.25;;
77078;SDS011;66004;55.096;38.760;2024-03-02T11:36:05;40.80;;;17.33;;
77078;SDS011;66004;55.096;38.760;2024-03-02T11:38:33;35.03;;;16.63;;
77078;SDS011;66004;55.096;38.760;2024-03-02T11:41:00;34.72;;;14.48;;
77078;SDS011;66004;55.096;38.760;2024-03-02T11:43:28;40.60;;;18.17;;
77078;SDS011;66004;55.096;38.760;2024-03-02T11:45:58;32.10;;;14.80;;
77078;SDS011;66004;55.096;38.760;2024-03-02T11:48:29;34.15;;;14.98;;
77078;SDS011;66004;55.096;38.760;2024-03-02T11:50:57;41.33;;;16.27;;
77078;SDS011;66004;55.096;38.760;2024-03-02T11:53:24;33.53;;;14.55;;
77078;SDS011;66004;55.096;38.760;2024-03-02T11:55:52;37.22;;;15.35;;
77078;SDS011;66004;55.096;38.760;2024-03-02T11:58:23;29.63;;;14.00;;
77078;SDS011;66004;55.096;38.760;2024-03-02T12:00:53;29.85;;;13.52;;
77078;SDS011;66004;55.096;38.760;2024-03-02T12:03:21;36.13;;;15.65;;
77078;SDS011;66004;55.096;38.760;2024-03-02T12:05:49;36.90;;;16.17;;
77078;SDS011;66004;55.096;38.760;2024-03-02T12:08:15;33.20;;;15.88;;
77078;SDS011;66004;55.096;38.760;2024-03-02T12:10:42;40.97;;;15.00;;
77078;SDS011;66004;55.096;38.760;2024-03-02T12:13:09;31.52;;;14.25;;
77078;SDS011;66004;55.096;38.760;2024-03-02T12:15:37;37.53;;;16.00;;
77078;SDS011;66004;55.096;38.760;2024-03-02T12:18:03;26.98;;;14.38;;
77078;SDS011;66004;55.096;38.760;2024-03-02T12:20:30;35.60;;;14.95;;
77078;SDS011;66004;55.096;38.760;2024-03-02T12:23:02;40.67;;;17.83;;
77078;SDS011;66004;55.096;38.760;2024-03-02T12:25:30;31.73;;;15.57;;
77078;SDS011;66004;55.096;38.760;2024-03-02T12:27:57;34.63;;;15.10;;
77078;SDS011;66004;55.096;38.760;2024-03-02T12:30:26;31.42;;;15.18;;
77078;SDS011;66004;55.096;38.760;2024-03-02T12:32:54;34.75;;;17.27;;
77078;SDS011;66004;55.096;38.760;2024-03-02T12:35:20;37.08;;;14.88;;
77078;SDS011;66004;55.096;38.760;2024-03-02T12:37:46;26.95;;;12.75;;
77078;SDS011;66004;55.096;38.760;2024-03-02T12:40:13;34.67;;;17.90;;
77078;SDS011;66004;55.096;38.760;2024-03-02T12:42:42;32.53;;;16.50;;
77078;SDS011;66004;55.096;38.760;2024-03-02T12:45:08;33.30;;;15.02;;
77078;SDS011;66004;55.096;38.760;2024-03-02T12:47:34;40.35;;;17.85;;
77078;SDS011;66004;55.096;38.760;2024-03-02T12:50:00;36.78;;;16.52;;
77078;SDS011;66004;55.096;38.760;2024-03-02T12:52:26;36.13;;;17.30;;
77078;SDS011;66004;55.096;38.760;2024-03-02T12:54:51;36.13;;;16.98;;
77078;SDS011;66004;55.096;38.760;2024-03-02T12:57:20;38.55;;;17.38;;
77078;SDS011;66004;55.096;38.760;2024-03-02T12:59:46;34.50;;;15.35;;
77078;SDS011;66004;55.096;38.760;2024-03-02T13:04:44;35.40;;;15.63;;
77078;SDS011;66004;55.096;38.760;2024-03-02T13:07:10;40.78;;;17.50;;
77078;SDS011;66004;55.096;38.760;2024-03-02T13:09:38;45.67;;;19.40;;
77078;SDS011;66004;55.096;38.760;2024-03-02T13:12:04;39.30;;;16.75;;
77078;SDS011;66004;55.096;38.760;2024-03-02T13:17:00;39.25;;;16.67;;
77078;SDS011;66004;55.096;38.760;2024-03-02T13:19:28;41.35;;;16.52;;
77078;SDS011;66004;55.096;38.760;2024-03-02T13:21:56;42.03;;;16.35;;
77078;SDS011;66004;55.096;38.760;2024-03-02T13:24:22;44.47;;;18.40;;
77078;SDS011;66004;55.096;38.760;2024-03-02T13:26:50;36.70;;;17.67;;
77078;SDS011;66004;55.096;38.760;2024-03-02T13:29:20;38.28;;;16.88;;
77078;SDS011;66004;55.096;38.760;2024-03-02T13:31:46;41.70;;;18.20;;
77078;SDS011;66004;55.096;38.760;2024-03-02T13:34:12;38.92;;;16.23;;
77078;SDS011;66004;55.096;38.760;2024-03-02T13:36:37;39.78;;;16.38;;
77078;SDS011;66004;55.096;38.760;2024-03-02T13:39:04;46.17;;;19.08;;
77078;SDS011;66004;55.096;38.760;2024-03-02T13:41:35;38.67;;;19.17;;
77078;SDS011;66004;55.096;38.760;2024-03-02T13:44:02;39.50;;;17.75;;
77078;SDS011;66004;55.096;38.760;2024-03-02T13:46:28;35.00;;;17.13;;
77078;SDS011;66004;55.096;38.760;2024-03-02T13:48:54;34.47;;;16.48;;
77078;SDS011;66004;55.096;38.760;2024-03-02T13:51:20;41.28;;;18.38;;
77078;SDS011;66004;55.096;38.760;2024-03-02T13:53:45;39.55;;;18.27;;
77078;SDS011;66004;55.096;38.760;2024-03-02T13:56:11;35.08;;;16.42;;
77078;SDS011;66004;55.096;38.760;2024-03-02T13:58:37;37.38;;;16.23;;
77078;SDS011;66004;55.096;38.760;2024-03-02T14:01:03;33.85;;;15.80;;
77078;SDS011;66004;55.096;38.760;2024-03-02T14:03:30;39.08;;;17.40;;
77078;SDS011;66004;55.096;38.760;2024-03-02T14:05:56;36.40;;;15.55;;
77078;SDS011;66004;55.096;38.760;2024-03-02T14:08:21;34.97;;;15.82;;
77078;SDS011;66004;55.096;38.760;2024-03-02T14:10:49;38.75;;;16.25;;
77078;SDS011;66004;55.096;38.760;2024-03-02T14:13:15;34.30;;;15.65;;
77078;SDS011;66004;55.096;38.760;2024-03-02T14:15:41;34.88;;;16.25;;
77078;SDS011;66004;55.096;38.760;2024-03-02T14:18:07;36.65;;;16.42;;
77078;SDS011;66004;55.096;38.760;2024-03-02T14:20:50;33.45;;;15.65;;
77078;SDS011;66004;55.096;38.760;2024-03-02T14:23:17;37.45;;;16.17;;
77078;SDS011;66004;55.096;38.760;2024-03-02T14:25:47;40.10;;;16.50;;
77078;SDS011;66004;55.096;38.760;2024-03-02T14:28:18;35.05;;;13.75;;
77078;SDS011;66004;55.096;38.760;2024-03-02T14:30:44;44.92;;;16.98;;
77078;SDS011;66004;55.096;38.760;2024-03-02T14:33:10;35.42;;;14.55;;
77078;SDS011;66004;55.096;38.760;2024-03-02T14:35:36;42.72;;;15.38;;
77078;SDS011;66004;55.096;38.760;2024-03-02T14:38:01;44.60;;;16.80;;
77078;SDS011;66004;55.096;38.760;2024-03-02T14:40:27;45.25;;;16.80;;
77078;SDS011;66004;55.096;38.760;2024-03-02T14:42:54;42.10;;;16.90;;
77078;SDS011;66004;55.096;38.760;2024-03-02T14:45:19;41.40;;;15.77;;
77078;SDS011;66004;55.096;38.760;2024-03-02T14:47:45;42.95;;;15.88;;
77078;SDS011;66004;55.096;38.760;2024-03-02T14:50:11;42.40;;;16.67;;
77078;SDS011;66004;55.096;38.760;2024-03-02T14:52:36;36.75;;;15.20;;
77078;SDS011;66004;55.096;38.760;2024-03-02T14:55:02;40.75;;;16.58;;
77078;SDS011;66004;55.096;38.760;2024-03-02T14:57:29;45.65;;;17.20;;
77078;SDS011;66004;55.096;38.760;2024-03-02T14:59:54;48.75;;;19.98;;
77078;SDS011;66004;55.096;38.760;2024-03-02T15:02:20;43.45;;;17.67;;